PIL weather

Port Isabel Cameron County Airport
Port Isabel, Texas, United States

Public forecast

Using degrees Fahrenheit for public forecast. Weather courtesy of forecast.io.

Current aviation weather report (METAR) for Port Isabel Cameron County Airport

Retrieved 2020/02/23 16:53 UTC (40 minutes ago):

KPIL 231653Z AUTO 13012KT 10SM FEW025 OVC048 22/17 A3007 RMK AO2 SLP182 T02170172

Closest aviation forecast (TAF) to Port Isabel Cameron County Airport

Closest forecast is Brownsville South Padre Island International Airport, 16.2 nm (29.9 km) SSW. Retrieved 2020/02/23 12:33 UTC (5 hours ago):

TAF KBRO 231130Z 2312/2412 14006KT P6SM FEW030 BKN050 FM231400 16015KT P6SM BKN050 FM231600 16019G26KT P6SM BKN050 FM240100 15012KT P6SM BKN035 FM240300 15012KT P6SM OVC025